SAAC/COC METAR and TAF weather

Enter ICAO airport designator
Station Type Date Time Source
SAAC METAR 2019/03/30 14:38 UTC NOAA

SAAC 301438Z 02002KT 1500 TSRA SCT002 OVC030 FEW040CB 22/22 Q1018


Station Type Date Time Source
SAAC Decoded METAR 2019/03/30 14:38 UTC NOAA

Concordia Aerodrome, Argentina (SAAC) 31-18S 058-01W 38M
Mar 30, 2019 - 10:38 AM EDT / 2019.03.30 1438 UTC
Wind: from the NNE (020 degrees) at 2 MPH (2 KT):0
Visibility: less than 1 mile:0
Sky conditions: overcast
Weather: rain with thunder; Cumulonimbus clouds observed
Temperature: 71 F (22 C)
Dew Point: 71 F (22 C)
Relative Humidity: 100%
Pressure (altimeter): 30.06 in. Hg (1018 hPa)
ob: SAAC 301438Z 02002KT 1500 TSRA SCT002 OVC030 FEW040CB 22/22 Q1018
cycle: 14

Station Type Date Time Source
SAAC TAF UTC NOAA

Error!

Example: see airport list